Kazak — 9V2928 — position and weather

sailwx.info

Track history (hours):
 
Tides and Currents Weather Stations Pressure Air Temp Water Temp Dewpoint Dewpoint Depression Visibility Wind Speed Wind Dir Waves Ship Positions

Kazak

Last reported at 2018-Jan-10 01:17 UTC. Time now 2018-Jan-19 07:56 UTC.
Position N 45°05' E 036°36'.
Warning: this ship's position is 9 days out of date.

Length 120 m; draft 5.5 m.

Type: Tanker. MMSI: 565516000.

Date/timePositionNaut miles runAvg speedWind from/ knotsBaromVisibWave heightAir tempDewpointWater temp
2018-Jan-10 01:17N 45°05' E 036°36'1 0.1
2018-Jan-09 06:20N 45°06' E 036°38'  
2018-Jan-06 23:10N 37°60' E 024°38'215.2
2018-Jan-06 23:00N 37°58' E 024°37'814.8
2018-Jan-06 22:30N 37°52' E 024°31'815.5
2018-Jan-06 22:00N 37°47' E 024°24'1315.6
2018-Jan-06 21:11N 37°38' E 024°12'315.8
2018-Jan-06 21:00N 37°36' E 024°09'815.5
2018-Jan-06 20:30N 37°29' E 024°04'815.7
2018-Jan-06 20:00N 37°23' E 023°59'1115.8
2018-Jan-06 19:18N 37°13' E 023°52'515.8
2018-Jan-06 19:01N 37°09' E 023°49'816.0
2018-Jan-06 18:30N 37°02' E 023°44'815.5
2018-Jan-06 17:58N 36°55' E 023°38'815.3
2018-Jan-06 17:27N 36°49' E 023°33'42214.6
2018-Jan-05 12:29N 35°49' E 014°54'815.3
2018-Jan-05 11:58N 35°49' E 014°44'813.2
2018-Jan-05 11:23N 35°49' E 014°35'1 0.1
2018-Jan-05 04:08N 35°49' E 014°36'310.1
2018-Jan-05 03:52N 35°51' E 014°37'512.9
2018-Jan-05 03:30N 35°56' E 014°37'612.9
2018-Jan-05 03:00N 36°02' E 014°35'714.1
2018-Jan-05 02:30N 36°09' E 014°34'713.9
2018-Jan-05 02:00N 36°13' E 014°26'816.0
2018-Jan-05 01:30N 36°16' E 014°17'816.1
2018-Jan-05 01:00N 36°20' E 014°08'816.3
2018-Jan-05 00:30N 36°23' E 013°59'916.2
2018-Jan-04 23:57N 36°26' E 013°48'  
Track history (hours):
 
Tides and Currents Weather Stations Pressure Air Temp Water Temp Dewpoint Dewpoint Depression Visibility Wind Speed Wind Dir Waves Ship Positions

Kazak

Last reported at 2018-Jan-10 01:17 UTC. Time now 2018-Jan-19 07:56 UTC.
Position N 45°05' E 036°36'.
Warning: this ship's position is 9 days out of date.

Length 120 m; draft 5.5 m.

Type: Tanker. MMSI: 565516000.

Date/timePositionNaut miles runAvg speedWind from/ knotsBaromVisibWave heightAir tempDewpointWater temp
2018-Jan-10 01:17N 45°05' E 036°36'1 0.1
2018-Jan-09 06:20N 45°06' E 036°38'  
2018-Jan-06 23:10N 37°60' E 024°38'215.2
2018-Jan-06 23:00N 37°58' E 024°37'814.8
2018-Jan-06 22:30N 37°52' E 024°31'815.5
2018-Jan-06 22:00N 37°47' E 024°24'1315.6
2018-Jan-06 21:11N 37°38' E 024°12'315.8
2018-Jan-06 21:00N 37°36' E 024°09'815.5
2018-Jan-06 20:30N 37°29' E 024°04'815.7
2018-Jan-06 20:00N 37°23' E 023°59'1115.8
2018-Jan-06 19:18N 37°13' E 023°52'515.8
2018-Jan-06 19:01N 37°09' E 023°49'816.0
2018-Jan-06 18:30N 37°02' E 023°44'815.5
2018-Jan-06 17:58N 36°55' E 023°38'815.3
2018-Jan-06 17:27N 36°49' E 023°33'42214.6
2018-Jan-05 12:29N 35°49' E 014°54'815.3
2018-Jan-05 11:58N 35°49' E 014°44'813.2
2018-Jan-05 11:23N 35°49' E 014°35'1 0.1
2018-Jan-05 04:08N 35°49' E 014°36'310.1
2018-Jan-05 03:52N 35°51' E 014°37'512.9
2018-Jan-05 03:30N 35°56' E 014°37'612.9
2018-Jan-05 03:00N 36°02' E 014°35'714.1
2018-Jan-05 02:30N 36°09' E 014°34'713.9
2018-Jan-05 02:00N 36°13' E 014°26'816.0
2018-Jan-05 01:30N 36°16' E 014°17'816.1
2018-Jan-05 01:00N 36°20' E 014°08'816.3
2018-Jan-05 00:30N 36°23' E 013°59'916.2
2018-Jan-04 23:57N 36°26' E 013°48'  

Dump ship's entire track history